Terminal Aerodrome Forecast
Issued by NWS Brownsville, TX

Home | Current Version | Previous Version | Text Only | Print | Product List | Glossary On
Versions: 1 2 3 4 5 6 7 8 9 10 11 12 13 14 15 16 17 18 19 20
000
FTUS44 KBRO 040617 CCA
TAFBRO
TAF COR
KBRO 040617Z 0406/0506 16013KT P6SM OVC006
     FM041300 15013G18KT P6SM BKN010
     FM041500 16018G25KT P6SM SCT030
     FM050100 15008KT 5SM BR BKN015=

USA.gov is the U.S. government's official web portal to all federal, state and local government web resources and services.